sensor_id;sensor_type;location;lat;lon;timestamp;pressure;altitude;pressure_sealevel;temperature;humidity
73240;BME280;61452;40.054;4.110;2023-05-02T00:01:34;101877.13;;;20.41;57.26
73240;BME280;61452;40.054;4.110;2023-05-02T00:06:37;101868.19;;;20.42;57.19
73240;BME280;61452;40.054;4.110;2023-05-02T00:11:39;101872.41;;;20.45;57.20
73240;BME280;61452;40.054;4.110;2023-05-02T00:16:41;101868.19;;;20.42;57.34
73240;BME280;61452;40.054;4.110;2023-05-02T00:21:46;101867.44;;;20.40;57.18
73240;BME280;61452;40.054;4.110;2023-05-02T00:26:49;101857.72;;;20.39;56.96
73240;BME280;61452;40.054;4.110;2023-05-02T00:31:51;101855.91;;;20.40;57.07
73240;BME280;61452;40.054;4.110;2023-05-02T00:36:53;101849.63;;;20.41;57.02
73240;BME280;61452;40.054;4.110;2023-05-02T00:41:56;101843.19;;;20.43;57.59
73240;BME280;61452;40.054;4.110;2023-05-02T00:47:00;101832.69;;;20.42;57.81
73240;BME280;61452;40.054;4.110;2023-05-02T00:52:02;101829.47;;;20.37;57.33
73240;BME280;61452;40.054;4.110;2023-05-02T00:57:04;101845.34;;;20.38;57.39
73240;BME280;61452;40.054;4.110;2023-05-02T01:12:46;101811.81;;;20.36;57.29
73240;BME280;61452;40.054;4.110;2023-05-02T01:17:53;101814.47;;;20.36;57.32
73240;BME280;61452;40.054;4.110;2023-05-02T01:23:02;101808.41;;;20.34;57.29
73240;BME280;61452;40.054;4.110;2023-05-02T01:33:27;101799.00;;;20.41;57.49
73240;BME280;61452;40.054;4.110;2023-05-02T01:38:32;101799.34;;;20.36;57.11
73240;BME280;61452;40.054;4.110;2023-05-02T01:43:36;101793.00;;;20.37;57.33
73240;BME280;61452;40.054;4.110;2023-05-02T01:48:43;101799.44;;;20.35;57.33
73240;BME280;61452;40.054;4.110;2023-05-02T01:53:47;101797.75;;;20.34;57.04
73240;BME280;61452;40.054;4.110;2023-05-02T01:58:52;101791.56;;;20.33;57.12
73240;BME280;61452;40.054;4.110;2023-05-02T02:03:57;101796.03;;;20.33;57.01
73240;BME280;61452;40.054;4.110;2023-05-02T02:09:01;101792.41;;;20.34;56.82
73240;BME280;61452;40.054;4.110;2023-05-02T02:14:06;101794.28;;;20.32;56.82
73240;BME280;61452;40.054;4.110;2023-05-02T02:19:14;101789.09;;;20.30;56.72
73240;BME280;61452;40.054;4.110;2023-05-02T02:24:17;101785.56;;;20.30;56.40
73240;BME280;61452;40.054;4.110;2023-05-02T02:29:21;101789.19;;;20.29;56.50
73240;BME280;61452;40.054;4.110;2023-05-02T02:34:24;101792.59;;;20.31;56.71
73240;BME280;61452;40.054;4.110;2023-05-02T02:49:50;101785.25;;;20.34;56.38
73240;BME280;61452;40.054;4.110;2023-05-02T02:54:59;101788.03;;;20.33;56.52
73240;BME280;61452;40.054;4.110;2023-05-02T03:00:12;101783.78;;;20.30;56.61
73240;BME280;61452;40.054;4.110;2023-05-02T03:05:17;101789.09;;;20.30;56.54
73240;BME280;61452;40.054;4.110;2023-05-02T03:10:21;101782.59;;;20.34;56.45
73240;BME280;61452;40.054;4.110;2023-05-02T03:21:00;101763.84;;;20.23;56.69
73240;BME280;61452;40.054;4.110;2023-05-02T03:26:03;101778.44;;;20.30;56.73
73240;BME280;61452;40.054;4.110;2023-05-02T03:31:05;101784.72;;;20.29;56.71
73240;BME280;61452;40.054;4.110;2023-05-02T03:36:11;101786.28;;;20.32;56.53
73240;BME280;61452;40.054;4.110;2023-05-02T03:41:14;101780.91;;;20.33;56.54
73240;BME280;61452;40.054;4.110;2023-05-02T03:46:18;101779.19;;;20.32;56.44
73240;BME280;61452;40.054;4.110;2023-05-02T03:51:20;101778.53;;;20.29;56.53
73240;BME280;61452;40.054;4.110;2023-05-02T03:56:26;101778.66;;;20.27;56.54
73240;BME280;61452;40.054;4.110;2023-05-02T04:01:43;101772.06;;;20.20;56.74
73240;BME280;61452;40.054;4.110;2023-05-02T04:06:48;101790.59;;;20.34;56.82
73240;BME280;61452;40.054;4.110;2023-05-02T04:11:51;101786.97;;;20.35;57.19
73240;BME280;61452;40.054;4.110;2023-05-02T04:16:53;101798.03;;;20.29;56.89
73240;BME280;61452;40.054;4.110;2023-05-02T04:22:05;101784.84;;;20.28;57.18
73240;BME280;61452;40.054;4.110;2023-05-02T04:27:12;101794.53;;;20.29;57.53
73240;BME280;61452;40.054;4.110;2023-05-02T04:32:17;101799.97;;;20.27;57.54
73240;BME280;61452;40.054;4.110;2023-05-02T04:37:20;101798.91;;;20.30;57.52
73240;BME280;61452;40.054;4.110;2023-05-02T04:42:23;101806.75;;;20.31;57.76
73240;BME280;61452;40.054;4.110;2023-05-02T04:47:35;101804.34;;;20.28;57.60
73240;BME280;61452;40.054;4.110;2023-05-02T04:52:37;101815.00;;;20.28;57.63
73240;BME280;61452;40.054;4.110;2023-05-02T04:57:40;101812.53;;;20.25;57.39
73240;BME280;61452;40.054;4.110;2023-05-02T05:02:46;101814.25;;;20.26;57.37
73240;BME280;61452;40.054;4.110;2023-05-02T05:07:49;101820.22;;;20.30;57.28
73240;BME280;61452;40.054;4.110;2023-05-02T05:12:55;101815.00;;;20.28;57.59
73240;BME280;61452;40.054;4.110;2023-05-02T05:17:58;101829.28;;;20.27;57.26
73240;BME280;61452;40.054;4.110;2023-05-02T05:23:00;101831.09;;;20.27;57.41
73240;BME280;61452;40.054;4.110;2023-05-02T05:28:03;101835.47;;;20.28;57.52
73240;BME280;61452;40.054;4.110;2023-05-02T05:33:08;101840.03;;;20.26;57.68
73240;BME280;61452;40.054;4.110;2023-05-02T05:38:10;101837.38;;;20.26;57.77
73240;BME280;61452;40.054;4.110;2023-05-02T05:43:15;101847.06;;;20.27;57.89
73240;BME280;61452;40.054;4.110;2023-05-02T05:48:18;101848.03;;;20.26;58.11
73240;BME280;61452;40.054;4.110;2023-05-02T05:53:21;101864.00;;;20.26;57.83
73240;BME280;61452;40.054;4.110;2023-05-02T05:58:24;101864.97;;;20.25;58.12
73240;BME280;61452;40.054;4.110;2023-05-02T06:03:29;101857.53;;;20.30;57.77
73240;BME280;61452;40.054;4.110;2023-05-02T06:08:32;101867.97;;;20.33;58.41
73240;BME280;61452;40.054;4.110;2023-05-02T06:13:34;101849.13;;;20.23;57.93
73240;BME280;61452;40.054;4.110;2023-05-02T06:18:36;101851.44;;;20.28;57.97
73240;BME280;61452;40.054;4.110;2023-05-02T06:23:40;101854.72;;;20.31;58.12
73240;BME280;61452;40.054;4.110;2023-05-02T06:28:43;101858.06;;;20.35;58.61
73240;BME280;61452;40.054;4.110;2023-05-02T06:33:45;101852.91;;;20.32;58.00
73240;BME280;61452;40.054;4.110;2023-05-02T06:38:47;101860.84;;;20.33;58.01
73240;BME280;61452;40.054;4.110;2023-05-02T06:43:50;101852.06;;;20.31;57.70
73240;BME280;61452;40.054;4.110;2023-05-02T06:48:52;101862.00;;;20.29;57.66
73240;BME280;61452;40.054;4.110;2023-05-02T06:53:54;101861.03;;;20.30;57.12
73240;BME280;61452;40.054;4.110;2023-05-02T06:58:56;101854.84;;;20.30;57.13
73240;BME280;61452;40.054;4.110;2023-05-02T07:04:00;101852.28;;;20.28;57.41
73240;BME280;61452;40.054;4.110;2023-05-02T07:09:02;101860.28;;;20.28;57.43
73240;BME280;61452;40.054;4.110;2023-05-02T07:14:04;101855.81;;;20.29;57.32
73240;BME280;61452;40.054;4.110;2023-05-02T07:19:07;101861.88;;;20.31;56.94
73240;BME280;61452;40.054;4.110;2023-05-02T07:24:09;101853.88;;;20.31;56.89
73240;BME280;61452;40.054;4.110;2023-05-02T07:29:11;101850.47;;;20.29;56.18
73240;BME280;61452;40.054;4.110;2023-05-02T07:34:13;101856.66;;;20.29;56.63
73240;BME280;61452;40.054;4.110;2023-05-02T07:39:15;101851.44;;;20.28;56.48
73240;BME280;61452;40.054;4.110;2023-05-02T07:44:17;101848.78;;;20.28;56.97
73240;BME280;61452;40.054;4.110;2023-05-02T07:49:20;101850.69;;;20.26;56.66
73240;BME280;61452;40.054;4.110;2023-05-02T07:54:22;101849.72;;;20.27;56.62
73240;BME280;61452;40.054;4.110;2023-05-02T07:59:27;101849.53;;;20.30;56.57
73240;BME280;61452;40.054;4.110;2023-05-02T08:04:29;101835.56;;;20.26;57.18
73240;BME280;61452;40.054;4.110;2023-05-02T08:09:31;101839.06;;;20.27;56.58
73240;BME280;61452;40.054;4.110;2023-05-02T08:14:33;101836.66;;;20.24;55.97
73240;BME280;61452;40.054;4.110;2023-05-02T08:19:36;101839.06;;;20.27;56.45
73240;BME280;61452;40.054;4.110;2023-05-02T08:24:38;101848.97;;;20.25;56.29
73240;BME280;61452;40.054;4.110;2023-05-02T08:29:40;101861.59;;;20.23;55.45
73240;BME280;61452;40.054;4.110;2023-05-02T08:34:42;101848.25;;;20.23;55.82
73240;BME280;61452;40.054;4.110;2023-05-02T08:39:44;101860.63;;;20.24;55.96
73240;BME280;61452;40.054;4.110;2023-05-02T08:44:47;101862.19;;;20.26;56.29
73240;BME280;61452;40.054;4.110;2023-05-02T08:49:50;101865.97;;;20.24;55.51
73240;BME280;61452;40.054;4.110;2023-05-02T08:54:54;101867.78;;;20.23;55.38
73240;BME280;61452;40.054;4.110;2023-05-02T08:59:57;101876.47;;;20.25;55.72
73240;BME280;61452;40.054;4.110;2023-05-02T09:05:05;101880.94;;;20.25;55.72
73240;BME280;61452;40.054;4.110;2023-05-02T09:10:08;101880.00;;;20.26;55.64
73240;BME280;61452;40.054;4.110;2023-05-02T09:15:15;101871.06;;;20.27;55.45
73240;BME280;61452;40.054;4.110;2023-05-02T09:20:21;101874.06;;;20.22;55.23
73240;BME280;61452;40.054;4.110;2023-05-02T09:25:23;101866.06;;;20.22;55.17
73240;BME280;61452;40.054;4.110;2023-05-02T09:30:25;101868.63;;;20.24;55.91
73240;BME280;61452;40.054;4.110;2023-05-02T09:35:28;101864.44;;;20.19;55.15
73240;BME280;61452;40.054;4.110;2023-05-02T09:40:30;101873.81;;;20.25;55.36
73240;BME280;61452;40.054;4.110;2023-05-02T09:45:33;101885.47;;;20.24;54.93
73240;BME280;61452;40.054;4.110;2023-05-02T09:50:36;101890.91;;;20.23;54.45
73240;BME280;61452;40.054;4.110;2023-05-02T09:55:39;101899.00;;;20.21;54.10
73240;BME280;61452;40.054;4.110;2023-05-02T10:00:42;101899.59;;;20.25;54.85
73240;BME280;61452;40.054;4.110;2023-05-02T10:05:55;101888.94;;;20.25;53.38
73240;BME280;61452;40.054;4.110;2023-05-02T10:10:58;101891.75;;;20.23;54.25
73240;BME280;61452;40.054;4.110;2023-05-02T10:16:02;101882.03;;;20.22;53.73
73240;BME280;61452;40.054;4.110;2023-05-02T10:21:07;101888.94;;;20.25;53.89
73240;BME280;61452;40.054;4.110;2023-05-02T10:26:15;101886.28;;;20.25;52.79
73240;BME280;61452;40.054;4.110;2023-05-02T10:31:18;101883.84;;;20.22;53.56
73240;BME280;61452;40.054;4.110;2023-05-02T10:36:21;101895.47;;;20.20;52.70
73240;BME280;61452;40.054;4.110;2023-05-02T10:41:26;101873.09;;;20.23;53.75
73240;BME280;61452;40.054;4.110;2023-05-02T10:46:36;101871.38;;;20.22;53.71
73240;BME280;61452;40.054;4.110;2023-05-02T10:51:40;101867.97;;;20.20;54.25
73240;BME280;61452;40.054;4.110;2023-05-02T11:07:30;101853.94;;;20.18;53.67
73240;BME280;61452;40.054;4.110;2023-05-02T11:18:01;101834.19;;;20.20;53.27
73240;BME280;61452;40.054;4.110;2023-05-02T11:33:39;101849.13;;;20.23;53.79
73240;BME280;61452;40.054;4.110;2023-05-02T11:38:41;101835.03;;;20.21;53.15
73240;BME280;61452;40.054;4.110;2023-05-02T11:43:43;101841.22;;;20.22;53.13
73240;BME280;61452;40.054;4.110;2023-05-02T11:48:45;101845.81;;;20.19;53.82
73240;BME280;61452;40.054;4.110;2023-05-02T11:53:48;101863.41;;;20.22;53.86
73240;BME280;61452;40.054;4.110;2023-05-02T11:59:00;101870.63;;;20.20;54.10
73240;BME280;61452;40.054;4.110;2023-05-02T12:04:05;101880.34;;;20.21;54.51
73240;BME280;61452;40.054;4.110;2023-05-02T12:09:14;101879.28;;;20.24;54.59
73240;BME280;61452;40.054;4.110;2023-05-02T12:14:29;101882.03;;;20.22;54.64
73240;BME280;61452;40.054;4.110;2023-05-02T12:19:31;101888.13;;;20.24;54.28
73240;BME280;61452;40.054;4.110;2023-05-02T12:24:33;101898.78;;;20.24;54.28
73240;BME280;61452;40.054;4.110;2023-05-02T12:29:44;101897.78;;;20.25;54.43
73240;BME280;61452;40.054;4.110;2023-05-02T12:34:46;101896.13;;;20.24;54.53
73240;BME280;61452;40.054;4.110;2023-05-02T12:39:50;101887.13;;;20.25;54.36
73240;BME280;61452;40.054;4.110;2023-05-02T12:44:53;101895.88;;;20.27;54.41
73240;BME280;61452;40.054;4.110;2023-05-02T12:49:58;101891.50;;;20.26;54.54
73240;BME280;61452;40.054;4.110;2023-05-02T12:55:23;101881.94;;;20.24;54.68
73240;BME280;61452;40.054;4.110;2023-05-02T13:00:26;101878.09;;;20.28;54.23
73240;BME280;61452;40.054;4.110;2023-05-02T13:05:28;101882.47;;;20.29;54.33
73240;BME280;61452;40.054;4.110;2023-05-02T13:10:30;101882.66;;;20.26;54.54
73240;BME280;61452;40.054;4.110;2023-05-02T13:15:32;101882.66;;;20.26;54.61
73240;BME280;61452;40.054;4.110;2023-05-02T13:20:34;101874.56;;;20.27;54.03
73240;BME280;61452;40.054;4.110;2023-05-02T13:25:36;101881.59;;;20.28;54.41
73240;BME280;61452;40.054;4.110;2023-05-02T13:30:38;101883.41;;;20.28;54.38
73240;BME280;61452;40.054;4.110;2023-05-02T13:35:41;101880.84;;;20.26;54.23
73240;BME280;61452;40.054;4.110;2023-05-02T13:40:43;101876.28;;;20.28;54.03
73240;BME280;61452;40.054;4.110;2023-05-02T13:45:45;101870.00;;;20.29;54.37
73240;BME280;61452;40.054;4.110;2023-05-02T13:50:49;101872.84;;;20.26;54.25
73240;BME280;61452;40.054;4.110;2023-05-02T13:55:51;101877.34;;;20.26;54.65
73240;BME280;61452;40.054;4.110;2023-05-02T14:00:54;101875.41;;;20.28;53.81
73240;BME280;61452;40.054;4.110;2023-05-02T14:05:56;101880.66;;;20.29;54.21
73240;BME280;61452;40.054;4.110;2023-05-02T14:10:58;101870.94;;;20.28;54.46
73240;BME280;61452;40.054;4.110;2023-05-02T14:16:00;101848.88;;;20.26;54.57
73240;BME280;61452;40.054;4.110;2023-05-02T14:21:03;101854.00;;;20.29;53.83
73240;BME280;61452;40.054;4.110;2023-05-02T14:26:05;101856.66;;;20.29;54.39
73240;BME280;61452;40.054;4.110;2023-05-02T14:31:07;101857.63;;;20.28;54.30
73240;BME280;61452;40.054;4.110;2023-05-02T14:36:09;101854.22;;;20.26;54.65
73240;BME280;61452;40.054;4.110;2023-05-02T14:41:13;101854.00;;;20.29;53.98
73240;BME280;61452;40.054;4.110;2023-05-02T14:46:15;101852.19;;;20.30;54.21
73240;BME280;61452;40.054;4.110;2023-05-02T14:51:18;101846.97;;;20.28;54.68
73240;BME280;61452;40.054;4.110;2023-05-02T14:56:20;101847.16;;;20.25;54.84
73240;BME280;61452;40.054;4.110;2023-05-02T15:01:22;101842.69;;;20.26;54.93
73240;BME280;61452;40.054;4.110;2023-05-02T15:06:30;101840.16;;;20.24;55.06
73240;BME280;61452;40.054;4.110;2023-05-02T15:11:33;101822.56;;;20.22;54.40
73240;BME280;61452;40.054;4.110;2023-05-02T15:16:35;101829.16;;;20.29;54.62
73240;BME280;61452;40.054;4.110;2023-05-02T15:21:38;101840.16;;;20.24;55.41
73240;BME280;61452;40.054;4.110;2023-05-02T15:26:40;101830.13;;;20.28;55.07
73240;BME280;61452;40.054;4.110;2023-05-02T15:31:43;101826.50;;;20.29;54.48
73240;BME280;61452;40.054;4.110;2023-05-02T15:36:45;101827.34;;;20.29;54.63
73240;BME280;61452;40.054;4.110;2023-05-02T15:41:47;101824.91;;;20.26;55.74
73240;BME280;61452;40.054;4.110;2023-05-02T15:46:49;101825.66;;;20.28;55.22
73240;BME280;61452;40.054;4.110;2023-05-02T15:51:51;101817.88;;;20.25;55.77
73240;BME280;61452;40.054;4.110;2023-05-02T15:56:53;101811.38;;;20.29;55.04
73240;BME280;61452;40.054;4.110;2023-05-02T16:01:55;101820.22;;;20.30;55.12
73240;BME280;61452;40.054;4.110;2023-05-02T16:06:58;101814.59;;;20.22;55.91
73240;BME280;61452;40.054;4.110;2023-05-02T16:12:00;101824.91;;;20.26;56.08
73240;BME280;61452;40.054;4.110;2023-05-02T16:17:03;101807.34;;;20.24;55.42
73240;BME280;61452;40.054;4.110;2023-05-02T16:22:05;101814.03;;;20.29;55.75
73240;BME280;61452;40.054;4.110;2023-05-02T16:27:07;101801.56;;;20.30;55.63
73240;BME280;61452;40.054;4.110;2023-05-02T16:32:09;101805.19;;;20.29;55.57
73240;BME280;61452;40.054;4.110;2023-05-02T16:37:11;101807.84;;;20.29;55.50
73240;BME280;61452;40.054;4.110;2023-05-02T16:42:13;101799.75;;;20.30;55.05
73240;BME280;61452;40.054;4.110;2023-05-02T16:47:15;101807.75;;;20.30;55.61
73240;BME280;61452;40.054;4.110;2023-05-02T16:52:18;101798.91;;;20.30;55.60
73240;BME280;61452;40.054;4.110;2023-05-02T16:57:20;101797.91;;;20.31;55.50
73240;BME280;61452;40.054;4.110;2023-05-02T17:02:22;101793.38;;;20.33;55.36
73240;BME280;61452;40.054;4.110;2023-05-02T17:07:25;101796.88;;;20.33;55.73
73240;BME280;61452;40.054;4.110;2023-05-02T17:12:27;101794.13;;;20.35;55.63
73240;BME280;61452;40.054;4.110;2023-05-02T17:17:30;101788.88;;;20.33;55.54
73240;BME280;61452;40.054;4.110;2023-05-02T17:22:33;101781.50;;;20.37;55.35
73240;BME280;61452;40.054;4.110;2023-05-02T17:27:36;101786.97;;;20.35;55.57
73240;BME280;61452;40.054;4.110;2023-05-02T17:32:41;101781.66;;;20.35;55.40
73240;BME280;61452;40.054;4.110;2023-05-02T17:37:43;101784.41;;;20.34;55.42
73240;BME280;61452;40.054;4.110;2023-05-02T17:42:46;101778.84;;;20.37;55.32
73240;BME280;61452;40.054;4.110;2023-05-02T17:47:48;101776.19;;;20.37;55.25
73240;BME280;61452;40.054;4.110;2023-05-02T17:52:50;101777.78;;;20.39;55.47
73240;BME280;61452;40.054;4.110;2023-05-02T17:57:52;101785.78;;;20.39;55.34
73240;BME280;61452;40.054;4.110;2023-05-02T18:02:55;101793.16;;;20.36;55.20
73240;BME280;61452;40.054;4.110;2023-05-02T18:07:57;101803.56;;;20.39;55.28
73240;BME280;61452;40.054;4.110;2023-05-02T18:13:00;101833.75;;;20.39;55.09
73240;BME280;61452;40.054;4.110;2023-05-02T18:18:02;101832.88;;;20.39;55.23
73240;BME280;61452;40.054;4.110;2023-05-02T18:23:04;101833.75;;;20.39;55.36
73240;BME280;61452;40.054;4.110;2023-05-02T18:28:06;101837.25;;;20.40;55.25
73240;BME280;61452;40.054;4.110;2023-05-02T18:33:09;101836.41;;;20.39;55.32
73240;BME280;61452;40.054;4.110;2023-05-02T18:38:11;101838.22;;;20.39;55.57
73240;BME280;61452;40.054;4.110;2023-05-02T18:43:13;101840.03;;;20.38;55.88
73240;BME280;61452;40.054;4.110;2023-05-02T18:48:15;101835.56;;;20.39;55.55
73240;BME280;61452;40.054;4.110;2023-05-02T18:53:17;101836.41;;;20.39;55.58
73240;BME280;61452;40.054;4.110;2023-05-02T18:58:22;101837.47;;;20.37;55.83
73240;BME280;61452;40.054;4.110;2023-05-02T19:03:24;101837.47;;;20.37;55.97
73240;BME280;61452;40.054;4.110;2023-05-02T19:08:27;101845.16;;;20.41;55.93
73240;BME280;61452;40.054;4.110;2023-05-02T19:13:29;101850.47;;;20.41;55.98
73240;BME280;61452;40.054;4.110;2023-05-02T19:18:32;101853.34;;;20.38;56.00
73240;BME280;61452;40.054;4.110;2023-05-02T19:23:35;101857.97;;;20.36;56.25
73240;BME280;61452;40.054;4.110;2023-05-02T19:28:38;101870.44;;;20.36;56.12
73240;BME280;61452;40.054;4.110;2023-05-02T19:33:41;101872.09;;;20.37;56.09
73240;BME280;61452;40.054;4.110;2023-05-02T19:38:53;101875.75;;;20.36;56.41
73240;BME280;61452;40.054;4.110;2023-05-02T19:43:59;101880.50;;;20.31;56.39
73240;BME280;61452;40.054;4.110;2023-05-02T19:49:01;101894.28;;;20.37;56.00
73240;BME280;61452;40.054;4.110;2023-05-02T19:54:03;101897.09;;;20.36;56.18
73240;BME280;61452;40.054;4.110;2023-05-02T19:59:05;101898.56;;;20.40;56.07
73240;BME280;61452;40.054;4.110;2023-05-02T20:04:08;101895.88;;;20.40;55.99
73240;BME280;61452;40.054;4.110;2023-05-02T20:09:10;101904.09;;;20.37;55.90
73240;BME280;61452;40.054;4.110;2023-05-02T20:14:12;101909.41;;;20.37;55.92
73240;BME280;61452;40.054;4.110;2023-05-02T20:19:14;101905.06;;;20.36;55.98
73240;BME280;61452;40.054;4.110;2023-05-02T20:24:21;101904.84;;;20.39;55.96
73240;BME280;61452;40.054;4.110;2023-05-02T20:29:23;101910.16;;;20.39;55.87
73240;BME280;61452;40.054;4.110;2023-05-02T20:34:26;101918.06;;;20.40;56.07
73240;BME280;61452;40.054;4.110;2023-05-02T20:39:29;101913.06;;;20.36;56.02
73240;BME280;61452;40.054;4.110;2023-05-02T20:44:32;101911.97;;;20.38;55.95
73240;BME280;61452;40.054;4.110;2023-05-02T20:49:34;101911.78;;;20.41;55.87
73240;BME280;61452;40.054;4.110;2023-05-02T20:54:36;101912.72;;;20.40;55.89
73240;BME280;61452;40.054;4.110;2023-05-02T20:59:39;101919.25;;;20.36;56.04
73240;BME280;61452;40.054;4.110;2023-05-02T21:04:41;101903.38;;;20.35;55.88
73240;BME280;61452;40.054;4.110;2023-05-02T21:09:43;101895.38;;;20.35;55.75
73240;BME280;61452;40.054;4.110;2023-05-02T21:14:45;101894.41;;;20.36;56.05
73240;BME280;61452;40.054;4.110;2023-05-02T21:19:47;101903.88;;;20.40;55.44
73240;BME280;61452;40.054;4.110;2023-05-02T21:24:50;101897.94;;;20.36;55.69
73240;BME280;61452;40.054;4.110;2023-05-02T21:29:52;101906.66;;;20.38;55.82
73240;BME280;61452;40.054;4.110;2023-05-02T21:34:54;101903.03;;;20.39;55.69
73240;BME280;61452;40.054;4.110;2023-05-02T21:39:56;101902.94;;;20.41;55.54
73240;BME280;61452;40.054;4.110;2023-05-02T21:44:59;101899.63;;;20.37;55.61
73240;BME280;61452;40.054;4.110;2023-05-02T21:50:01;101914.66;;;20.38;55.81
73240;BME280;61452;40.054;4.110;2023-05-02T21:55:05;101900.25;;;20.28;55.80
73240;BME280;61452;40.054;4.110;2023-05-02T22:00:10;101911.25;;;20.36;55.78
73240;BME280;61452;40.054;4.110;2023-05-02T22:05:12;101914.66;;;20.38;55.59
73240;BME280;61452;40.054;4.110;2023-05-02T22:10:14;101909.31;;;20.38;55.33
73240;BME280;61452;40.054;4.110;2023-05-02T22:15:16;101911.38;;;20.35;55.53
73240;BME280;61452;40.054;4.110;2023-05-02T22:20:19;101908.59;;;20.36;55.46
73240;BME280;61452;40.054;4.110;2023-05-02T22:25:21;101910.16;;;20.39;55.04
73240;BME280;61452;40.054;4.110;2023-05-02T22:30:24;101911.78;;;20.41;53.61
73240;BME280;61452;40.054;4.110;2023-05-02T22:35:26;101917.53;;;20.35;55.48
73240;BME280;61452;40.054;4.110;2023-05-02T22:40:29;101914.66;;;20.38;53.90
73240;BME280;61452;40.054;4.110;2023-05-02T22:45:35;101920.72;;;20.40;54.22
73240;BME280;61452;40.054;4.110;2023-05-02T22:50:40;101926.91;;;20.41;54.24
73240;BME280;61452;40.054;4.110;2023-05-02T22:55:43;101924.69;;;20.35;55.52
73240;BME280;61452;40.054;4.110;2023-05-02T23:00:46;101940.44;;;20.38;54.55
73240;BME280;61452;40.054;4.110;2023-05-02T23:05:48;101940.34;;;20.39;54.61
73240;BME280;61452;40.054;4.110;2023-05-02T23:10:50;101927.88;;;20.40;53.81
73240;BME280;61452;40.054;4.110;2023-05-02T23:15:53;101931.59;;;20.37;55.13
73240;BME280;61452;40.054;4.110;2023-05-02T23:20:58;101929.16;;;20.34;55.26
73240;BME280;61452;40.054;4.110;2023-05-02T23:26:00;101922.66;;;20.38;52.72
73240;BME280;61452;40.054;4.110;2023-05-02T23:31:03;101925.22;;;20.40;52.63
73240;BME280;61452;40.054;4.110;2023-05-02T23:36:06;101920.94;;;20.37;52.25
73240;BME280;61452;40.054;4.110;2023-05-02T23:41:08;101916.00;;;20.31;55.21
73240;BME280;61452;40.054;4.110;2023-05-02T23:46:10;101915.75;;;20.36;54.05
73240;BME280;61452;40.054;4.110;2023-05-02T23:51:12;101911.25;;;20.36;53.96
73240;BME280;61452;40.054;4.110;2023-05-02T23:56:14;101904.94;;;20.37;53.58
